createdAt,value
2022-12-27T00:01:38.845Z,2.34
2022-12-27T00:04:06.865Z,2.38
2022-12-27T00:06:34.612Z,2.36
2022-12-27T00:09:03.768Z,2.34
2022-12-27T00:11:31.917Z,2.32
2022-12-27T00:14:03.515Z,2.26
2022-12-27T00:16:31.688Z,2.25
2022-12-27T00:19:00.065Z,2.26
2022-12-27T00:21:27.957Z,2.24
2022-12-27T00:23:57.595Z,2.26
2022-12-27T00:26:27.839Z,2.23
2022-12-27T00:28:56.740Z,2.20
2022-12-27T00:31:28.769Z,2.15
2022-12-27T00:33:58.483Z,2.16
2022-12-27T00:36:28.600Z,2.08
2022-12-27T00:38:58.093Z,2.08
2022-12-27T00:41:26.453Z,2.07
2022-12-27T00:43:54.349Z,2.03
2022-12-27T00:46:22.205Z,1.98
2022-12-27T00:48:51.320Z,2.00
2022-12-27T00:51:22.514Z,2.05
2022-12-27T00:53:52.056Z,2.06
2022-12-27T00:56:22.382Z,2.05
2022-12-27T00:58:54.392Z,2.06
2022-12-27T01:01:24.605Z,2.00
2022-12-27T01:03:54.409Z,1.99
2022-12-27T01:06:25.734Z,1.95
2022-12-27T01:08:53.503Z,1.89
2022-12-27T01:11:21.932Z,1.82
2022-12-27T01:13:50.199Z,1.79
2022-12-27T01:16:20.413Z,1.83
2022-12-27T01:18:48.981Z,1.86
2022-12-27T01:21:20.410Z,1.85
2022-12-27T01:23:48.488Z,1.72
2022-12-27T01:26:17.869Z,1.74
2022-12-27T01:28:46.587Z,1.72
2022-12-27T01:31:16.975Z,1.68
2022-12-27T01:33:45.050Z,1.63
2022-12-27T01:36:15.063Z,1.59
2022-12-27T01:38:44.598Z,1.59
2022-12-27T01:41:34.373Z,1.52
2022-12-27T01:44:02.496Z,1.51
2022-12-27T01:46:31.569Z,1.55
2022-12-27T01:48:59.539Z,1.56
2022-12-27T01:51:27.432Z,1.50
2022-12-27T01:53:56.709Z,1.42
2022-12-27T01:56:28.678Z,1.45
2022-12-27T01:58:59.690Z,1.49
2022-12-27T02:01:32.001Z,1.45
2022-12-27T02:04:03.378Z,1.46
2022-12-27T02:06:32.766Z,1.49
2022-12-27T02:09:08.385Z,1.49
2022-12-27T02:11:53.199Z,1.47
2022-12-27T02:14:28.028Z,1.46
2022-12-27T02:16:58.417Z,1.40
2022-12-27T02:19:39.612Z,1.37
2022-12-27T02:22:56.176Z,1.27
2022-12-27T02:25:41.923Z,1.22
2022-12-27T02:28:24.110Z,1.24
2022-12-27T02:31:00.321Z,1.22
2022-12-27T02:33:33.560Z,1.19
2022-12-27T02:36:05.672Z,1.19
2022-12-27T02:38:38.181Z,1.18
2022-12-27T02:41:35.302Z,1.22
2022-12-27T02:44:20.827Z,1.22
2022-12-27T02:47:07.897Z,1.20
2022-12-27T02:49:55.440Z,1.30
2022-12-27T02:52:53.841Z,1.42
2022-12-27T02:55:32.640Z,1.71
2022-12-27T02:58:18.455Z,1.98
2022-12-27T03:01:07.334Z,2.05
2022-12-27T03:03:46.650Z,2.17
2022-12-27T03:06:43.665Z,2.18
2022-12-27T03:09:57.006Z,2.17
2022-12-27T03:12:57.187Z,2.20
2022-12-27T03:15:56.398Z,2.39
2022-12-27T03:18:36.885Z,2.46
2022-12-27T03:21:25.959Z,2.46
2022-12-27T03:24:14.068Z,2.48
2022-12-27T03:26:47.521Z,2.47
2022-12-27T03:29:36.448Z,2.45
2022-12-27T03:32:26.186Z,2.43
2022-12-27T03:34:57.144Z,2.47
2022-12-27T03:37:47.783Z,2.45
2022-12-27T03:40:24.481Z,2.41
2022-12-27T03:43:11.476Z,2.38
2022-12-27T03:46:15.906Z,2.47
2022-12-27T03:48:57.708Z,2.46
2022-12-27T03:51:28.532Z,2.43
2022-12-27T03:54:03.355Z,2.53
2022-12-27T03:56:31.631Z,2.49
2022-12-27T03:59:01.853Z,2.45
2022-12-27T04:01:29.720Z,2.52
2022-12-27T04:03:57.593Z,2.54
2022-12-27T04:06:25.374Z,2.52
2022-12-27T04:09:10.796Z,2.49
2022-12-27T04:11:57.586Z,2.48
2022-12-27T04:14:42.749Z,2.46
2022-12-27T04:17:27.869Z,2.41
2022-12-27T04:20:12.988Z,2.32
2022-12-27T04:22:58.133Z,2.23
2022-12-27T04:25:43.526Z,2.10
2022-12-27T04:28:31.863Z,1.97
2022-12-27T04:31:17.243Z,1.87
2022-12-27T04:34:02.584Z,1.84
2022-12-27T04:36:30.367Z,1.71
2022-12-27T04:38:58.147Z,1.59
2022-12-27T04:41:43.691Z,1.53
2022-12-27T04:44:30.226Z,1.42
2022-12-27T04:47:15.637Z,1.26
2022-12-27T04:50:00.524Z,1.23
2022-12-27T04:52:45.988Z,1.23
2022-12-27T04:55:18.510Z,1.21
2022-12-27T04:57:46.554Z,1.12
2022-12-27T05:00:34.945Z,1.08
2022-12-27T05:03:05.221Z,1.11
2022-12-27T05:05:33.546Z,1.12
2022-12-27T05:08:19.774Z,1.13
2022-12-27T05:11:05.083Z,1.20
2022-12-27T05:13:50.992Z,1.31
2022-12-27T05:16:20.108Z,1.38
2022-12-27T05:18:47.944Z,1.39
2022-12-27T05:21:15.723Z,1.43
2022-12-27T05:24:05.452Z,1.51
2022-12-27T05:26:34.522Z,1.61
2022-12-27T05:29:02.393Z,1.67
2022-12-27T05:31:31.867Z,1.68
2022-12-27T05:33:59.999Z,1.64
2022-12-27T05:36:28.182Z,1.62
2022-12-27T05:38:55.989Z,1.62
2022-12-27T05:41:23.740Z,1.67
2022-12-27T05:43:51.611Z,1.64
2022-12-27T05:46:21.031Z,1.59
2022-12-27T05:48:50.659Z,1.52
2022-12-27T05:51:20.998Z,1.50
2022-12-27T05:53:49.764Z,1.49
2022-12-27T05:56:19.861Z,1.45
2022-12-27T05:58:48.141Z,1.45
2022-12-27T06:01:17.603Z,1.43
2022-12-27T06:03:45.946Z,1.33
2022-12-27T06:06:15.382Z,1.27
2022-12-27T06:08:43.208Z,1.24
2022-12-27T06:11:12.855Z,1.18
2022-12-27T06:13:45.178Z,1.15
2022-12-27T06:16:14.099Z,1.06
2022-12-27T06:18:43.805Z,1.05
2022-12-27T06:21:14.200Z,1.08
2022-12-27T06:23:45.624Z,1.06
2022-12-27T06:26:15.745Z,1.02
2022-12-27T06:28:43.621Z,1.01
2022-12-27T06:31:11.824Z,1.00
2022-12-27T06:33:40.628Z,0.99
2022-12-27T06:36:10.080Z,0.99
2022-12-27T06:38:38.379Z,0.95
2022-12-27T06:41:09.431Z,0.94
2022-12-27T06:43:38.474Z,0.85
2022-12-27T06:46:12.315Z,0.85
2022-12-27T06:48:43.135Z,0.87
2022-12-27T06:51:12.705Z,0.86
2022-12-27T06:53:40.880Z,0.87
2022-12-27T06:56:12.950Z,0.87
2022-12-27T06:58:40.775Z,0.89
2022-12-27T07:01:09.307Z,0.92
2022-12-27T07:03:38.584Z,0.96
2022-12-27T07:06:08.584Z,0.97
2022-12-27T07:08:37.399Z,0.98
2022-12-27T07:11:07.039Z,0.94
2022-12-27T07:13:37.173Z,0.90
2022-12-27T07:16:05.822Z,0.88
2022-12-27T07:18:34.011Z,0.83
2022-12-27T07:21:05.488Z,0.79
2022-12-27T07:23:33.516Z,0.72
2022-12-27T07:26:03.610Z,0.70
2022-12-27T07:28:31.381Z,0.72
2022-12-27T07:31:01.037Z,0.75
2022-12-27T07:33:28.756Z,0.79
2022-12-27T07:35:59.819Z,0.82
2022-12-27T07:38:27.694Z,0.85
2022-12-27T07:40:56.006Z,0.85
2022-12-27T07:43:23.781Z,0.89
2022-12-27T07:45:51.570Z,0.89
2022-12-27T07:48:20.860Z,0.87
2022-12-27T07:50:55.489Z,0.85
2022-12-27T07:53:23.569Z,0.82
2022-12-27T07:55:51.902Z,0.86
2022-12-27T07:58:19.862Z,0.85
2022-12-27T08:00:48.991Z,0.85
2022-12-27T08:03:17.205Z,0.86
2022-12-27T08:05:50.110Z,0.86
2022-12-27T08:08:20.647Z,0.92
2022-12-27T08:10:48.356Z,0.95
2022-12-27T08:13:16.200Z,0.99
2022-12-27T08:15:44.580Z,0.96
2022-12-27T08:18:12.271Z,1.02
2022-12-27T08:20:39.962Z,1.07
2022-12-27T08:23:09.070Z,1.15
2022-12-27T08:25:36.829Z,1.23
2022-12-27T08:28:05.461Z,1.36
2022-12-27T08:30:33.291Z,1.49
2022-12-27T08:33:02.289Z,1.62
2022-12-27T08:38:19.267Z,1.89
2022-12-27T08:40:47.544Z,2.02
2022-12-27T08:43:16.224Z,2.19
2022-12-27T08:45:44.168Z,2.29
2022-12-27T08:48:12.149Z,2.45
2022-12-27T08:50:40.062Z,2.56
2022-12-27T08:53:07.836Z,2.58
2022-12-27T08:55:37.540Z,2.65
2022-12-27T08:58:12.203Z,2.71
2022-12-27T09:00:44.480Z,2.84
2022-12-27T09:03:12.355Z,3.02
2022-12-27T09:05:42.065Z,3.16
2022-12-27T09:08:10.476Z,3.30
2022-12-27T09:10:40.051Z,3.44
2022-12-27T09:13:07.836Z,3.56
2022-12-27T09:15:35.592Z,3.68
2022-12-27T09:18:04.014Z,3.85
2022-12-27T09:20:32.589Z,4.09
2022-12-27T09:23:00.936Z,4.41
2022-12-27T09:25:28.763Z,4.69
2022-12-27T09:27:57.908Z,4.97
2022-12-27T09:30:26.181Z,5.02
2022-12-27T09:32:53.972Z,4.98
2022-12-27T09:35:21.676Z,5.02
2022-12-27T09:37:49.403Z,5.20
2022-12-27T09:40:21.327Z,5.34
2022-12-27T09:43:12.504Z,5.33
2022-12-27T09:45:49.479Z,5.41
2022-12-27T09:48:32.587Z,5.61
2022-12-27T09:51:04.955Z,5.51
2022-12-27T09:53:44.035Z,5.52
2022-12-27T09:56:13.946Z,5.66
2022-12-27T09:58:48.069Z,5.86
2022-12-27T10:01:40.351Z,5.97
2022-12-27T10:04:13.950Z,6.09
2022-12-27T10:07:04.802Z,6.19
2022-12-27T10:09:46.106Z,6.21
2022-12-27T10:12:29.658Z,6.08
2022-12-27T10:15:05.104Z,6.23
2022-12-27T10:17:52.850Z,6.49
2022-12-27T10:20:28.010Z,6.64
2022-12-27T10:23:05.884Z,6.73
2022-12-27T10:25:36.937Z,6.91
2022-12-27T10:28:17.386Z,7.06
2022-12-27T10:30:45.576Z,7.23
2022-12-27T10:33:20.895Z,7.32
2022-12-27T10:35:49.125Z,7.33
2022-12-27T10:38:16.843Z,7.63
2022-12-27T10:40:52.887Z,7.70
2022-12-27T10:43:26.372Z,7.80
2022-12-27T10:45:54.404Z,8.00
2022-12-27T10:48:28.887Z,8.08
2022-12-27T10:51:02.724Z,8.05
2022-12-27T10:53:37.458Z,8.26
2022-12-27T10:56:15.166Z,8.57
2022-12-27T10:58:45.621Z,7.98
2022-12-27T11:01:19.960Z,8.05
2022-12-27T11:03:49.211Z,7.98
2022-12-27T11:06:23.627Z,8.12
2022-12-27T11:08:53.078Z,8.10
2022-12-27T11:11:23.044Z,8.11
2022-12-27T11:13:50.953Z,7.92
2022-12-27T11:16:28.812Z,7.88
2022-12-27T11:18:59.961Z,7.94
2022-12-27T11:21:29.806Z,7.94
2022-12-27T11:24:00.444Z,7.84
2022-12-27T11:26:30.638Z,7.92
2022-12-27T11:29:00.914Z,7.90
2022-12-27T11:31:41.835Z,8.08
2022-12-27T11:34:17.835Z,8.54
2022-12-27T11:36:49.833Z,9.32
2022-12-27T11:39:39.284Z,9.31
2022-12-27T11:42:23.365Z,9.40
2022-12-27T11:45:04.218Z,8.76
2022-12-27T11:47:39.447Z,8.56
2022-12-27T11:50:25.883Z,8.34
2022-12-27T11:53:17.846Z,8.23
2022-12-27T11:56:10.915Z,8.18
2022-12-27T11:59:04.546Z,8.03
2022-12-27T12:01:54.485Z,7.84
2022-12-27T12:04:42.623Z,7.81
2022-12-27T12:07:27.553Z,7.80
2022-12-27T12:10:07.657Z,7.88
2022-12-27T12:13:21.728Z,7.96
2022-12-27T12:16:06.493Z,7.76
2022-12-27T12:18:54.990Z,7.74
2022-12-27T12:21:27.496Z,7.82
2022-12-27T12:24:11.316Z,7.77
2022-12-27T12:26:54.215Z,7.82
2022-12-27T12:29:38.724Z,8.03
2022-12-27T12:32:35.914Z,7.90
2022-12-27T12:35:33.164Z,7.97
2022-12-27T12:38:10.898Z,8.01
2022-12-27T12:41:09.216Z,7.88
2022-12-27T12:44:12.458Z,7.90
2022-12-27T12:46:48.455Z,8.11
2022-12-27T12:49:44.018Z,8.02
2022-12-27T12:52:32.454Z,8.02
2022-12-27T12:55:25.613Z,8.17
2022-12-27T12:58:05.686Z,8.35
2022-12-27T13:00:47.696Z,8.45
2022-12-27T13:03:36.745Z,8.76
2022-12-27T13:06:19.760Z,8.56
2022-12-27T13:08:57.569Z,8.49
2022-12-27T13:11:36.713Z,8.38
2022-12-27T13:14:29.882Z,8.45
2022-12-27T13:17:03.583Z,8.50
2022-12-27T13:19:45.642Z,8.68
2022-12-27T13:22:21.181Z,8.52
2022-12-27T13:25:00.352Z,8.49
2022-12-27T13:27:37.920Z,8.40
2022-12-27T13:30:18.640Z,8.42
2022-12-27T13:33:00.023Z,8.44
2022-12-27T13:35:40.418Z,8.48
2022-12-27T13:38:25.846Z,8.43
2022-12-27T13:41:06.229Z,8.50
2022-12-27T13:44:06.531Z,8.60
2022-12-27T13:46:48.831Z,8.56
2022-12-27T13:49:31.367Z,8.76
2022-12-27T13:52:12.900Z,8.74
2022-12-27T13:55:17.045Z,9.05
2022-12-27T13:58:23.632Z,9.08
2022-12-27T14:00:59.611Z,9.09
2022-12-27T14:03:57.599Z,8.86
2022-12-27T14:06:59.170Z,8.90
2022-12-27T14:09:59.398Z,8.92
2022-12-27T14:12:42.019Z,8.70
2022-12-27T14:15:17.657Z,8.84
2022-12-27T14:17:50.185Z,8.83
2022-12-27T14:20:35.641Z,8.49
2022-12-27T14:23:34.985Z,8.50
2022-12-27T14:26:39.167Z,8.39
2022-12-27T14:29:38.402Z,8.41
2022-12-27T14:32:42.232Z,8.31
2022-12-27T14:35:38.142Z,8.22
2022-12-27T14:38:37.766Z,8.03
2022-12-27T14:41:39.315Z,8.05
2022-12-27T14:44:29.252Z,8.00
2022-12-27T14:47:29.885Z,8.03
2022-12-27T14:50:30.504Z,7.88
2022-12-27T14:53:46.464Z,7.72
2022-12-27T14:56:24.413Z,7.78
2022-12-27T14:59:15.318Z,7.73
2022-12-27T15:02:06.274Z,7.67
2022-12-27T15:04:59.284Z,7.61
2022-12-27T15:07:55.134Z,7.62
2022-12-27T15:10:40.577Z,7.54
2022-12-27T15:13:14.503Z,7.43
2022-12-27T15:15:54.863Z,7.42
2022-12-27T15:18:41.068Z,7.41
2022-12-27T15:21:21.478Z,7.34
2022-12-27T15:23:53.989Z,7.31
2022-12-27T15:26:33.558Z,7.25
2022-12-27T15:29:21.413Z,7.22
2022-12-27T15:31:58.076Z,7.14
2022-12-27T15:34:55.338Z,7.11
2022-12-27T15:37:53.532Z,7.06
2022-12-27T15:40:31.194Z,7.04
2022-12-27T15:43:05.356Z,6.99
2022-12-27T15:45:49.719Z,6.99
2022-12-27T15:48:57.244Z,6.93
2022-12-27T15:51:34.026Z,6.89
2022-12-27T15:54:26.501Z,6.92
2022-12-27T15:57:27.204Z,6.82
2022-12-27T15:59:56.412Z,6.80
2022-12-27T16:02:34.254Z,6.81
2022-12-27T16:05:14.275Z,6.74
2022-12-27T16:07:44.826Z,6.79
2022-12-27T16:10:53.244Z,6.76
2022-12-27T16:13:36.054Z,6.79
2022-12-27T16:16:11.381Z,6.74
2022-12-27T16:19:12.166Z,6.62
2022-12-27T16:21:43.998Z,6.61
2022-12-27T16:24:17.507Z,6.50
2022-12-27T16:26:54.461Z,6.44
2022-12-27T16:29:27.202Z,6.54
2022-12-27T16:32:15.643Z,6.85
2022-12-27T16:34:45.331Z,6.88
2022-12-27T16:37:25.641Z,7.67
2022-12-27T16:40:10.769Z,7.62
2022-12-27T16:43:32.130Z,8.03
2022-12-27T16:46:23.686Z,7.68
2022-12-27T16:49:10.815Z,7.58
2022-12-27T16:51:49.298Z,7.80
2022-12-27T16:54:27.427Z,7.60
2022-12-27T16:57:41.590Z,7.57
2022-12-27T17:00:38.489Z,6.96
2022-12-27T17:03:47.097Z,6.64
2022-12-27T17:06:51.885Z,6.47
2022-12-27T17:09:38.193Z,6.34
2022-12-27T17:12:12.754Z,6.11
2022-12-27T17:14:44.154Z,6.08
2022-12-27T17:17:18.424Z,5.94
2022-12-27T17:19:52.003Z,5.84
2022-12-27T17:22:20.830Z,5.71
2022-12-27T17:24:51.281Z,5.65
2022-12-27T17:27:30.064Z,5.61
2022-12-27T17:30:06.908Z,5.60
2022-12-27T17:33:11.299Z,5.50
2022-12-27T17:35:54.513Z,5.37
2022-12-27T17:38:32.678Z,5.41
2022-12-27T17:41:15.703Z,5.38
2022-12-27T17:44:11.216Z,5.35
2022-12-27T17:46:48.365Z,5.31
2022-12-27T17:49:17.445Z,5.26
2022-12-27T17:52:01.265Z,5.19
2022-12-27T17:54:46.868Z,5.14
2022-12-27T17:57:34.502Z,5.14
2022-12-27T18:00:02.451Z,5.05
2022-12-27T18:02:41.230Z,5.01
2022-12-27T18:05:15.094Z,4.98
2022-12-27T18:07:45.255Z,4.99
2022-12-27T18:10:21.451Z,4.92
2022-12-27T18:12:53.577Z,4.85
2022-12-27T18:15:22.849Z,4.83
2022-12-27T18:17:52.843Z,4.81
2022-12-27T18:20:31.921Z,4.77
2022-12-27T18:23:16.843Z,4.74
2022-12-27T18:25:54.492Z,4.72
2022-12-27T18:28:28.681Z,4.66
2022-12-27T18:31:06.334Z,4.63
2022-12-27T18:33:38.603Z,4.57
2022-12-27T18:36:08.062Z,4.47
2022-12-27T18:38:41.051Z,4.44
2022-12-27T18:41:11.955Z,4.40
2022-12-27T18:43:44.325Z,4.38
2022-12-27T18:46:16.330Z,4.33
2022-12-27T18:48:44.535Z,4.38
2022-12-27T18:51:12.908Z,4.35
2022-12-27T18:53:43.867Z,4.35
2022-12-27T18:56:26.924Z,4.37
2022-12-27T18:59:01.460Z,4.39
2022-12-27T19:01:36.901Z,4.43
2022-12-27T19:04:28.495Z,4.37
2022-12-27T19:07:06.025Z,4.34
2022-12-27T19:09:39.518Z,4.33
2022-12-27T19:12:10.152Z,4.33
2022-12-27T19:14:44.444Z,4.32
2022-12-27T19:17:17.840Z,4.27
2022-12-27T19:19:48.959Z,4.26
2022-12-27T19:22:31.863Z,4.24
2022-12-27T19:25:02.048Z,4.21
2022-12-27T19:27:29.931Z,4.15
2022-12-27T19:29:57.784Z,4.14
2022-12-27T19:32:32.597Z,4.09
2022-12-27T19:35:03.528Z,4.07
2022-12-27T19:37:33.478Z,4.08
2022-12-27T19:40:02.944Z,4.06
2022-12-27T19:42:34.741Z,4.05
2022-12-27T19:45:03.299Z,4.03
2022-12-27T19:47:31.354Z,4.03
2022-12-27T19:49:59.243Z,4.01
2022-12-27T19:52:27.849Z,4.06
2022-12-27T19:55:02.118Z,3.99
2022-12-27T19:57:31.524Z,3.92
2022-12-27T19:59:59.316Z,3.96
2022-12-27T20:02:27.464Z,3.90
2022-12-27T20:04:55.258Z,3.88
2022-12-27T20:07:26.246Z,3.88
2022-12-27T20:09:54.440Z,3.87
2022-12-27T20:12:22.181Z,3.82
2022-12-27T20:14:51.338Z,3.82
2022-12-27T20:17:19.370Z,3.82
2022-12-27T20:19:47.251Z,3.87
2022-12-27T20:22:15.001Z,3.84
2022-12-27T20:24:42.747Z,3.80
2022-12-27T20:27:10.477Z,3.78
2022-12-27T20:29:38.330Z,3.77
2022-12-27T20:32:07.784Z,3.79
2022-12-27T20:34:35.576Z,3.76
2022-12-27T20:37:03.805Z,3.77
2022-12-27T20:39:31.584Z,3.77
2022-12-27T20:41:59.340Z,3.73
2022-12-27T20:44:27.742Z,3.74
2022-12-27T20:46:55.476Z,3.72
2022-12-27T20:49:24.720Z,3.69
2022-12-27T20:51:52.713Z,3.76
2022-12-27T20:54:20.449Z,3.73
2022-12-27T20:56:48.135Z,3.67
2022-12-27T20:59:15.832Z,3.60
2022-12-27T21:01:43.907Z,3.58
2022-12-27T21:04:11.870Z,3.61
2022-12-27T21:06:40.937Z,3.52
2022-12-27T21:09:09.157Z,3.53
2022-12-27T21:11:37.061Z,3.51
2022-12-27T21:14:06.008Z,3.40
2022-12-27T21:16:35.990Z,3.31
2022-12-27T21:19:04.886Z,3.27
2022-12-27T21:21:34.728Z,3.21
2022-12-27T21:24:04.768Z,3.13
2022-12-27T21:26:35.791Z,3.09
2022-12-27T21:29:05.308Z,3.10
2022-12-27T21:31:35.034Z,3.12
2022-12-27T21:34:03.701Z,3.12
2022-12-27T21:36:33.914Z,3.08
2022-12-27T21:39:03.630Z,3.01
2022-12-27T21:41:33.607Z,2.94
2022-12-27T21:44:02.297Z,2.93
2022-12-27T21:46:32.101Z,2.87
2022-12-27T21:49:01.346Z,2.78
2022-12-27T21:51:30.627Z,2.84
2022-12-27T21:53:58.681Z,2.85
2022-12-27T21:56:27.941Z,2.82
2022-12-27T21:58:56.381Z,2.82
2022-12-27T22:01:25.922Z,2.80
2022-12-27T22:03:55.181Z,2.84
2022-12-27T22:06:25.796Z,2.81
2022-12-27T22:08:55.931Z,2.83
2022-12-27T22:11:24.563Z,2.87
2022-12-27T22:13:53.843Z,2.96
2022-12-27T22:16:23.526Z,3.01
2022-12-27T22:18:52.500Z,3.22
2022-12-27T22:21:23.029Z,3.25
2022-12-27T22:23:52.716Z,3.29
2022-12-27T22:26:22.657Z,3.35
2022-12-27T22:28:50.835Z,3.46
2022-12-27T22:31:22.251Z,3.49
2022-12-27T22:33:51.303Z,3.54
2022-12-27T22:36:21.257Z,3.70
2022-12-27T22:38:50.223Z,3.77
2022-12-27T22:41:20.058Z,3.86
2022-12-27T22:43:52.211Z,3.95
2022-12-27T22:46:21.977Z,4.05
2022-12-27T22:48:51.581Z,4.11
2022-12-27T22:51:21.247Z,4.13
2022-12-27T22:53:49.371Z,4.18
2022-12-27T22:56:19.456Z,4.25
2022-12-27T22:58:47.620Z,4.31
2022-12-27T23:01:17.612Z,4.35
2022-12-27T23:03:47.374Z,4.39
2022-12-27T23:06:15.783Z,4.43
2022-12-27T23:08:44.730Z,4.44
2022-12-27T23:11:14.616Z,4.45
2022-12-27T23:13:42.426Z,4.50
2022-12-27T23:16:10.812Z,4.53
2022-12-27T23:18:39.394Z,4.60
2022-12-27T23:21:21.523Z,4.60
2022-12-27T23:23:51.981Z,4.61
2022-12-27T23:26:22.192Z,4.67
2022-12-27T23:28:52.180Z,4.69
2022-12-27T23:31:22.042Z,4.76
2022-12-27T23:33:50.110Z,4.73
2022-12-27T23:36:19.930Z,4.69
2022-12-27T23:38:48.519Z,4.70
2022-12-27T23:41:18.872Z,4.70
2022-12-27T23:43:55.690Z,4.75
2022-12-27T23:46:27.301Z,4.77
2022-12-27T23:48:56.097Z,4.78
2022-12-27T23:51:25.720Z,4.80
2022-12-27T23:53:53.853Z,4.80
2022-12-27T23:56:23.986Z,4.82
2022-12-27T23:58:53.113Z,4.88
